Relatórios de METAR próximas

 

LPAR - Alverca, Portugal
Distance from station: S 38km
Actualizado: 02/06/2020 14:00
Muito Nublado
Muito Nublado
 Vento de OSO
Vento: OSO 6 km/h
Temperatura: 24°C
Ponto de Orvalho: 14°C
Humidade: 54%
Barómetro: 1015 hPa
Nuvens: Muito Nublado
Visibilidade: 10 km
Cloud details: Few Clouds 762 m
Muito Nublado 1158 m
2020/06/02 13:00 LPAR 021300Z 25003KT 9999 FEW025 BKN038 24/14 Q1015
LPPT - Lisbon/Portela, Portugal
Distance from station: S 52km
Actualizado: 02/06/2020 14:30
Few Clouds
Few Clouds
 Vento de SO
Vento: SO 19 km/h
Temperatura: 23°C
Ponto de Orvalho: 14°C
Humidade: 57%
Barómetro: 1015 hPa
Nuvens: Few Clouds
Visibilidade: 10 km
Cloud details: Few Clouds 914 m
2020/06/02 13:30 LPPT 021330Z 22010KT 160V250 9999 FEW030 23/14 Q1015
 
LPST - Sintra/Granja (a, Portugal
Distance from station: SSO 53km
Actualizado: 02/06/2020 14:00
Parc. Nublado
Parc. Nublado
 Vento de SSO
Vento: SSO 15 km/h
Temperatura: 22°C
Ponto de Orvalho: 15°C
Humidade: 65%
Barómetro: 1016 hPa
Nuvens: Parc. Nublado
Visibilidade: 10 km
Cloud details: Parc. Nublado 762 m
Parc. Nublado 1219 m
2020/06/02 13:00 LPST 021300Z 21008KT 170V250 9999 SCT025 SCT040 22/15 Q1016
LPMT - Montijo (por-Afb, Portugal
Distance from station: S 59km
Actualizado: 02/06/2020 14:00
Few Clouds
Few Clouds
 Vento de O
Vento: O 17 km/h
Temperatura: 24°C
Ponto de Orvalho: 17°C
Humidade: 65%
Barómetro: 1015 hPa
Nuvens: Few Clouds
Visibilidade: 10 km
Cloud details: Few Clouds 914 m
2020/06/02 13:00 LPMT 021300Z 27009KT 9999 FEW030 24/17 Q1015
 
LPCS - Cascais, Portugal
Distance from station: SSO 63km
Actualizado: 02/06/2020 14:30
Few Clouds
Few Clouds
 Vento de SSO
Vento: SSO 15 km/h
Temperatura: 23°C
Ponto de Orvalho: 14°C
Humidade: 57%
Barómetro: 1016 hPa
Nuvens: Few Clouds
Visibilidade: 10 km
Cloud details: Few Clouds 549 m
2020/06/02 13:30 LPCS 021330Z 20008KT 160V250 9999 FEW018 23/14 Q1016
LPMR - Monte Real(Por-A, Portugal
Distance from station: N 67km
Actualizado: 02/06/2020 14:00
Muito Nublado
Muito Nublado
 Vento de O
Vento: O 13 km/h
Temperatura: 21°C
Ponto de Orvalho: 17°C
Humidade: 78%
Barómetro: 1015 hPa
Nuvens: Muito Nublado
Visibilidade: 10 km
Cloud details: Parc. Nublado 488 m
Muito Nublado 1067 m
2020/06/02 13:00 LPMR 021300Z 27007KT 230V310 9999 SCT016 BKN035 21/17 Q1015